Time;durP1;ratioP1;P1;durP2;ratioP2;P2;SDS_P1;SDS_P2;PMS_P1;PMS_P2;Temp;Humidity;BMP_temperature;BMP_pressure;BME280_temperature;BME280_humidity;BME280_pressure;Samples;Min_cycle;Max_cycle;Signal;HPM_P1;HPM_P2
2023/12/25 00:01:21;;;;;;;27.80;13.82;;;;;;;7.58;66.12;99456.28;5028092;28;20022;-25
2023/12/25 00:03:46;;;;;;;25.38;13.65;;;;;;;7.72;66.27;99457.19;5027928;28;20345;-26
2023/12/25 00:06:12;;;;;;;25.02;13.32;;;;;;;8.02;65.10;99456.00;5095451;28;20031;-25
2023/12/25 00:08:38;;;;;;;25.30;13.48;;;;;;;7.76;65.39;99458.44;5027445;28;20036;-26
2023/12/25 00:11:04;;;;;;;25.23;13.10;;;;;;;7.87;66.49;99454.47;5027239;28;20146;-26
2023/12/25 00:13:29;;;;;;;24.70;13.13;;;;;;;8.19;64.06;99453.84;5027280;28;20042;-25
2023/12/25 00:15:54;;;;;;;27.27;14.35;;;;;;;7.76;65.62;99464.56;5027281;28;20040;-25
2023/12/25 00:18:20;;;;;;;28.02;14.73;;;;;;;7.34;67.17;99458.28;5026692;28;20133;-25
2023/12/25 00:20:45;;;;;;;30.33;14.60;;;;;;;7.46;66.48;99455.94;5026079;28;20488;-25
2023/12/25 00:23:10;;;;;;;22.90;14.40;;;;;;;7.53;66.23;99454.19;5025533;28;20497;-25
2023/12/25 00:25:36;;;;;;;23.75;12.93;;;;;;;7.79;65.30;99453.59;5026596;28;20479;-26
2023/12/25 00:28:01;;;;;;;28.80;14.68;;;;;;;7.77;65.14;99462.75;5026897;28;20029;-25
2023/12/25 00:30:27;;;;;;;25.33;13.32;;;;;;;7.68;65.54;99456.75;5026996;28;20333;-26
2023/12/25 00:32:52;;;;;;;25.92;13.20;;;;;;;7.56;65.75;99456.47;5026597;28;20036;-25
2023/12/25 00:35:17;;;;;;;26.50;13.35;;;;;;;7.58;66.56;99464.22;5026646;28;20045;-27
2023/12/25 00:37:43;;;;;;;26.58;13.93;;;;;;;7.38;67.10;99454.25;5026697;28;20461;-27
2023/12/25 00:40:08;;;;;;;28.40;13.38;;;;;;;7.44;66.88;99461.47;5026388;28;20133;-27
2023/12/25 00:42:33;;;;;;;25.88;14.38;;;;;;;7.18;67.61;99453.25;5026777;28;20090;-26
2023/12/25 00:44:59;;;;;;;24.08;13.77;;;;;;;7.38;66.48;99466.69;5026297;28;20041;-27
2023/12/25 00:47:24;;;;;;;31.10;14.88;;;;;;;7.11;67.45;99453.19;5025559;28;20033;-27
2023/12/25 00:49:50;;;;;;;28.20;13.95;;;;;;;7.20;67.71;99465.28;5025785;28;20374;-26
2023/12/25 00:52:17;;;;;;;25.45;13.45;;;;;;;7.13;67.11;99466.22;5040024;28;20463;-26
2023/12/25 00:54:43;;;;;;;30.63;15.85;;;;;;;6.97;68.27;99462.81;5029185;28;20095;-25
2023/12/25 00:57:09;;;;;;;35.17;16.67;;;;;;;7.07;68.09;99461.69;5029829;28;20049;-25
2023/12/25 00:59:35;;;;;;;24.90;14.25;;;;;;;7.19;67.86;99473.41;5029395;28;20153;-25
2023/12/25 01:02:00;;;;;;;25.00;13.38;;;;;;;6.94;68.63;99460.53;5030509;28;20129;-25
2023/12/25 01:04:25;;;;;;;24.55;13.20;;;;;;;7.12;67.71;99461.94;5030415;28;20045;-26
2023/12/25 01:06:51;;;;;;;27.02;13.75;;;;;;;7.02;67.73;99460.41;5030463;28;20029;-26
2023/12/25 01:09:16;;;;;;;24.92;13.57;;;;;;;6.74;66.67;99456.81;5030175;28;20053;-26
2023/12/25 01:11:42;;;;;;;24.08;13.02;;;;;;;6.90;68.25;99458.47;5030068;28;20362;-25
2023/12/25 01:14:09;;;;;;;27.20;14.25;;;;;;;7.19;68.88;99463.63;5030110;28;20155;-25
2023/12/25 01:16:35;;;;;;;24.73;14.23;;;;;;;6.90;68.06;99455.81;5029958;28;20457;-25
2023/12/25 01:19:00;;;;;;;28.67;15.43;;;;;;;6.64;68.39;99460.59;5029858;28;20104;-38
2023/12/25 01:21:26;;;;;;;27.02;15.52;;;;;;;6.75;70.61;99446.06;5029802;28;20104;-25
2023/12/25 01:23:51;;;;;;;29.40;15.15;;;;;;;6.50;71.53;99435.00;5029835;28;20119;-25
2023/12/25 01:26:18;;;;;;;24.90;13.50;;;;;;;6.18;72.39;99396.56;5029709;28;20040;-25
2023/12/25 01:28:43;;;;;;;27.25;14.75;;;;;;;6.37;72.44;99427.72;5029568;28;20338;-25
2023/12/25 01:31:09;;;;;;;25.88;14.18;;;;;;;6.45;71.29;99424.97;5030363;28;20513;-25
2023/12/25 01:33:34;;;;;;;28.73;16.52;;;;;;;6.52;70.92;99422.41;5030095;28;20017;-25
2023/12/25 01:35:59;;;;;;;29.85;15.60;;;;;;;6.66;70.22;99410.16;5029785;28;20032;-25
2023/12/25 01:38:25;;;;;;;28.80;14.35;;;;;;;6.69;69.68;99412.44;5029622;28;20029;-26
2023/12/25 01:40:50;;;;;;;25.98;14.40;;;;;;;6.77;69.65;99416.78;5029973;28;20660;-27
2023/12/25 01:43:16;;;;;;;26.88;14.32;;;;;;;6.76;69.61;99420.44;5029560;28;20405;-25
2023/12/25 01:45:41;;;;;;;25.50;14.38;;;;;;;6.62;70.23;99412.34;5029585;28;20037;-25
2023/12/25 01:48:07;;;;;;;26.90;14.43;;;;;;;6.26;71.18;99412.31;5029268;28;20428;-27
2023/12/25 01:50:33;;;;;;;24.88;13.90;;;;;;;6.25;71.65;99405.41;5029250;28;20021;-39
2023/12/25 01:52:59;;;;;;;26.67;14.73;;;;;;;6.40;71.48;99414.13;5029407;28;20025;-38
2023/12/25 01:55:25;;;;;;;23.10;13.35;;;;;;;6.10;71.76;99431.81;5029422;28;20040;-39
2023/12/25 01:57:51;;;;;;;25.23;13.40;;;;;;;5.98;72.05;99422.72;5029509;28;20513;-39
2023/12/25 02:00:17;;;;;;;23.08;12.73;;;;;;;6.51;70.57;99436.66;5029334;28;20090;-38
2023/12/25 02:02:42;;;;;;;24.55;13.18;;;;;;;6.54;70.39;99420.41;5029353;28;20115;-38
2023/12/25 02:05:08;;;;;;;22.77;12.40;;;;;;;6.55;70.34;99418.56;5028596;28;20018;-39
2023/12/25 02:07:37;;;;;;;22.13;12.10;;;;;;;6.25;71.54;99424.72;5029257;28;20132;-37
2023/12/25 02:10:03;;;;;;;19.37;11.60;;;;;;;6.17;71.49;99421.34;5029458;28;20022;-39
2023/12/25 02:12:28;;;;;;;22.13;12.05;;;;;;;6.20;71.60;99405.94;5029280;28;20268;-25
2023/12/25 02:14:54;;;;;;;23.27;11.75;;;;;;;6.26;71.99;99422.88;5029006;28;20024;-37
2023/12/25 02:17:19;;;;;;;26.65;13.13;;;;;;;6.21;71.07;99410.22;5029189;28;20049;-38
2023/12/25 02:19:45;;;;;;;21.45;12.85;;;;;;;6.25;70.63;99419.44;5028949;28;20026;-36
2023/12/25 02:22:12;;;;;;;26.42;12.30;;;;;;;6.12;71.74;99419.25;5029021;28;20049;-38
2023/12/25 02:25:02;;;;;;;25.00;12.60;;;;;;;5.93;72.42;99411.84;5028830;28;20746;-38
2023/12/25 02:27:32;;;;;;;23.15;11.57;;;;;;;6.15;72.11;99416.25;5097106;28;20405;-38
2023/12/25 02:29:58;;;;;;;;;;;;;;;6.07;72.56;99422.44;5027815;28;20489;-39
2023/12/25 02:32:26;;;;;;;25.50;12.55;;;;;;;6.05;72.62;99413.03;5028963;28;19916;-38
2023/12/25 02:35:04;;;;;;;24.52;12.05;;;;;;;6.21;72.16;99426.09;5030447;28;20425;-38
2023/12/25 02:37:29;;;;;;;23.92;12.30;;;;;;;6.41;70.86;99409.66;5027885;28;20565;-36
2023/12/25 02:40:07;;;;;;;17.30;10.30;;;;;;;6.17;71.51;99416.03;5028375;28;20071;-39
2023/12/25 05:40:42;;;;;;;14.68;7.05;;;;;;;6.46;69.57;99474.19;5391260;23;20791;-34
2023/12/25 05:43:10;;;;;;;16.48;7.80;;;;;;;6.61;69.74;99462.78;4984311;28;20137;-34
2023/12/25 05:45:37;;;;;;;13.02;7.28;;;;;;;6.62;69.23;99467.88;4984134;28;20390;-33
2023/12/25 05:48:02;;;;;;;14.32;6.90;;;;;;;6.74;69.56;99459.47;4979249;28;20033;-34
2023/12/25 05:50:28;;;;;;;14.20;7.90;;;;;;;6.82;68.84;99449.63;4973729;28;20097;-32
2023/12/25 05:52:53;;;;;;;13.85;7.93;;;;;;;6.79;68.82;99457.91;4973737;28;20035;-34
2023/12/25 05:55:20;;;;;;;14.98;7.53;;;;;;;6.79;68.64;99452.63;4981185;28;21344;-33
2023/12/25 05:57:45;;;;;;;15.88;7.35;;;;;;;6.75;68.71;99461.13;4982311;28;20046;-33
2023/12/25 06:00:11;;;;;;;12.88;7.28;;;;;;;6.76;68.69;99455.66;4975294;28;20121;-34
2023/12/25 06:02:37;;;;;;;16.77;7.72;;;;;;;6.48;69.51;99455.50;4974018;28;20031;-33
2023/12/25 06:05:02;;;;;;;13.15;7.30;;;;;;;6.51;70.16;99464.88;4973006;28;20185;-34
2023/12/25 06:07:28;;;;;;;13.00;7.22;;;;;;;6.45;70.38;99469.94;4979330;28;20026;-34
2023/12/25 06:09:53;;;;;;;17.55;8.13;;;;;;;6.94;68.13;99459.72;4981928;28;20536;-34
2023/12/25 06:12:18;;;;;;;15.80;7.10;;;;;;;7.01;67.67;99460.63;4976705;28;20030;-33
2023/12/25 06:14:44;;;;;;;14.65;7.00;;;;;;;7.12;67.90;99456.63;4973838;28;20040;-33
2023/12/25 06:17:09;;;;;;;12.57;7.05;;;;;;;7.48;66.88;99450.47;4974048;28;20030;-33
2023/12/25 06:19:34;;;;;;;16.58;8.13;;;;;;;7.24;66.95;99433.97;4973305;28;20034;-33
2023/12/25 06:22:00;;;;;;;17.20;9.23;;;;;;;7.19;67.56;99416.00;4981958;28;20108;-34
2023/12/25 06:24:25;;;;;;;15.70;8.27;;;;;;;7.54;66.12;99432.00;4978760;28;20046;-33
2023/12/25 06:26:50;;;;;;;15.90;8.10;;;;;;;7.79;65.11;99442.19;4973928;28;20118;-34
2023/12/25 06:29:16;;;;;;;16.55;9.25;;;;;;;7.88;65.68;99461.38;4973623;28;20110;-40
2023/12/25 06:31:45;;;;;;;15.75;8.75;;;;;;;7.97;64.70;99462.88;4973685;28;20023;-40
2023/12/25 06:34:11;;;;;;;20.98;8.80;;;;;;;8.44;63.08;99466.66;4972971;28;20019;-39
2023/12/25 06:36:36;;;;;;;15.10;7.57;;;;;;;9.02;72.83;99468.94;4973096;28;20041;-39
2023/12/25 06:39:01;;;;;;;24.42;11.23;;;;;;;8.89;60.48;99468.88;4973619;28;20033;-38
2023/12/25 06:41:27;;;;;;;14.30;8.85;;;;;;;9.36;59.16;99457.34;4973162;28;20043;-39
2023/12/25 06:43:52;;;;;;;15.02;8.45;;;;;;;9.52;58.38;99455.31;4973577;28;20081;-38
2023/12/25 06:46:17;;;;;;;15.07;8.50;;;;;;;9.30;58.87;99465.31;4972930;28;20577;-39
2023/12/25 06:48:43;;;;;;;15.70;8.15;;;;;;;9.61;58.24;99464.75;4973281;28;20027;-37
2023/12/25 06:51:08;;;;;;;15.07;8.32;;;;;;;9.81;58.15;99470.06;4972944;28;20081;-39
2023/12/25 06:53:34;;;;;;;18.70;9.38;;;;;;;9.79;57.92;99474.78;4973548;28;20029;-39
2023/12/25 06:55:59;;;;;;;17.90;8.98;;;;;;;10.00;57.77;99476.41;4972865;28;20065;-40
2023/12/25 06:58:24;;;;;;;15.75;9.13;;;;;;;10.57;57.34;99480.19;4972806;28;20022;-39
2023/12/25 07:00:50;;;;;;;16.55;8.88;;;;;;;10.87;55.33;99460.22;4972074;28;20033;-37
2023/12/25 07:03:15;;;;;;;16.60;9.15;;;;;;;10.75;55.28;99463.53;4972774;28;20494;-41
2023/12/25 07:05:42;;;;;;;16.17;9.60;;;;;;;11.23;54.39;99475.59;4980583;28;20410;-39
2023/12/25 07:08:07;;;;;;;16.70;9.05;;;;;;;11.69;52.52;99486.94;4976409;28;20029;-40
2023/12/25 07:10:32;;;;;;;13.25;8.35;;;;;;;11.93;51.87;99464.84;4972925;28;20023;-38
2023/12/25 07:12:58;;;;;;;17.15;9.52;;;;;;;12.17;50.62;99486.38;4972752;28;20023;-42
2023/12/25 07:15:23;;;;;;;16.08;8.98;;;;;;;12.29;50.97;99497.13;4972881;28;20223;-40
2023/12/25 07:17:48;;;;;;;15.55;9.05;;;;;;;12.47;49.85;99507.00;4972489;28;20542;-40
2023/12/25 07:20:14;;;;;;;12.20;7.93;;;;;;;12.40;49.34;99509.75;4972259;28;20027;-40
2023/12/25 07:22:40;;;;;;;16.05;8.60;;;;;;;12.66;48.64;99518.50;4970937;28;20031;-39
2023/12/25 07:25:06;;;;;;;15.18;9.40;;;;;;;12.82;47.83;99517.09;4972360;28;20022;-40
2023/12/25 07:27:32;;;;;;;14.45;7.50;;;;;;;12.84;48.53;99528.38;4972344;28;20019;-40
2023/12/25 07:29:58;;;;;;;16.65;8.10;;;;;;;12.74;48.54;99523.56;4972067;28;20029;-40
2023/12/25 07:32:23;;;;;;;14.88;7.90;;;;;;;12.97;48.08;99527.41;4971752;28;20026;-40
2023/12/25 07:34:49;;;;;;;13.23;7.80;;;;;;;13.29;47.29;99528.84;4971620;28;20054;-38
2023/12/25 07:37:15;;;;;;;11.55;6.68;;;;;;;13.57;46.05;99523.94;4972085;28;20023;-40
2023/12/25 07:39:40;;;;;;;11.77;6.85;;;;;;;13.54;46.79;99519.09;4969919;28;20134;-40
2023/12/25 07:42:06;;;;;;;12.65;7.45;;;;;;;13.45;47.50;99515.91;4972110;28;20019;-40
2023/12/25 07:44:31;;;;;;;9.50;6.30;;;;;;;13.96;45.98;99530.56;4972005;28;20062;-40
2023/12/25 07:46:57;;;;;;;11.05;6.30;;;;;;;14.27;44.97;99531.28;4971896;28;20039;-40
2023/12/25 07:49:22;;;;;;;12.38;5.88;;;;;;;14.30;44.93;99525.47;4971525;28;20029;-40
2023/12/25 07:51:47;;;;;;;21.70;12.02;;;;;;;14.46;48.82;99537.31;4970374;28;20407;-40
2023/12/25 07:54:13;;;;;;;10.57;6.65;;;;;;;14.75;45.51;99540.91;4971684;28;20034;-40
2023/12/25 07:56:38;;;;;;;15.23;8.40;;;;;;;15.17;52.30;99535.34;4970866;28;20122;-40
2023/12/25 07:59:04;;;;;;;11.55;5.90;;;;;;;15.02;44.22;99522.47;4970667;28;20118;-41
2023/12/25 08:01:29;;;;;;;12.50;6.45;;;;;;;15.42;43.86;99539.53;4971641;28;20022;-41
2023/12/25 08:03:54;;;;;;;15.85;7.32;;;;;;;15.73;45.28;99537.44;4970968;28;20034;-39
2023/12/25 08:06:20;;;;;;;12.93;7.00;;;;;;;15.51;45.01;99543.47;4971700;28;20031;-39
2023/12/25 08:08:47;;;;;;;13.15;7.00;;;;;;;15.68;43.62;99540.00;4971811;28;20660;-40
2023/12/25 08:11:16;;;;;;;14.80;7.07;;;;;;;15.66;43.89;99542.13;4971690;28;20069;-39
2023/12/25 08:13:41;;;;;;;11.23;6.85;;;;;;;16.14;42.61;99530.84;4971622;28;20035;-41
2023/12/25 08:16:06;;;;;;;14.38;6.88;;;;;;;15.91;42.20;99531.03;4970053;28;20038;-41
2023/12/25 08:18:32;;;;;;;13.30;6.60;;;;;;;15.77;42.02;99530.53;4970771;28;20036;-41
2023/12/25 08:20:58;;;;;;;9.88;6.07;;;;;;;15.62;42.73;99537.22;4971110;28;20034;-42
2023/12/25 08:23:23;;;;;;;14.55;7.25;;;;;;;15.68;42.85;99535.44;4971019;28;20049;-41
2023/12/25 08:25:48;;;;;;;13.63;6.32;;;;;;;15.71;42.50;99534.97;4971328;28;20022;-42
2023/12/25 08:28:13;;;;;;;13.02;6.35;;;;;;;15.80;43.13;99527.34;4971895;28;20031;-40
2023/12/25 08:30:39;;;;;;;14.55;6.20;;;;;;;15.98;42.08;99524.44;4971823;28;20061;-40
2023/12/25 08:33:04;;;;;;;11.15;6.20;;;;;;;16.29;41.30;99524.09;4971511;28;20499;-40
2023/12/25 08:35:30;;;;;;;12.00;5.55;;;;;;;16.57;40.21;99520.47;4969816;28;20027;-38
2023/12/25 08:37:55;;;;;;;15.52;5.78;;;;;;;16.98;40.42;99507.56;4971626;28;20027;-40
2023/12/25 08:40:20;;;;;;;13.43;5.15;;;;;;;17.45;38.86;99501.59;4971089;28;20581;-40
2023/12/25 08:42:46;;;;;;;11.88;5.30;;;;;;;17.40;40.31;99509.63;4971117;28;20046;-41
2023/12/25 08:45:11;;;;;;;9.00;5.00;;;;;;;17.65;37.99;99516.31;4970753;28;20023;-41
2023/12/25 08:47:36;;;;;;;10.43;4.90;;;;;;;17.87;37.62;99510.88;4970715;28;20023;-39
2023/12/25 08:50:02;;;;;;;11.55;5.15;;;;;;;18.17;37.17;99504.91;4971023;28;20471;-39
2023/12/25 08:52:27;;;;;;;11.45;4.97;;;;;;;18.25;36.37;99501.72;4970823;28;20089;-39
2023/12/25 08:54:53;;;;;;;10.55;4.38;;;;;;;18.54;35.37;99498.66;4970978;28;20026;-40
2023/12/25 08:57:18;;;;;;;11.35;3.70;;;;;;;18.38;34.81;99496.97;4970718;28;20493;-39
2023/12/25 08:59:45;;;;;;;9.65;3.28;;;;;;;18.83;33.55;99499.09;4971075;28;20080;-38
2023/12/25 09:02:11;;;;;;;6.38;3.03;;;;;;;19.04;32.19;99497.28;4971271;28;20022;-40
2023/12/25 09:04:36;;;;;;;7.80;2.83;;;;;;;19.21;31.37;99494.38;4970978;28;20106;-40
2023/12/25 09:07:01;;;;;;;6.47;2.92;;;;;;;19.62;30.91;99493.59;4971207;28;20054;-39
2023/12/25 09:09:27;;;;;;;6.88;2.70;;;;;;;19.66;30.79;99486.59;4970908;28;20121;-40
2023/12/25 09:11:52;;;;;;;11.73;4.22;;;;;;;19.53;31.81;99486.06;4971122;28;20117;-39
2023/12/25 09:14:20;;;;;;;7.15;3.55;;;;;;;19.92;31.08;99480.13;4971120;28;20058;-39
2023/12/25 09:16:45;;;;;;;5.70;3.00;;;;;;;19.68;31.47;99487.13;4974270;28;20027;-40
2023/12/25 09:19:11;;;;;;;6.13;2.95;;;;;;;19.81;30.96;99486.63;4974587;28;20383;-41
2023/12/25 09:21:39;;;;;;;10.27;2.90;;;;;;;19.86;30.76;99475.03;4972933;28;20055;-27
2023/12/25 09:24:05;;;;;;;8.50;2.97;;;;;;;19.93;31.08;99475.53;4968649;28;20034;-26
2023/12/25 09:26:30;;;;;;;4.70;2.53;;;;;;;19.57;31.68;99475.50;4974041;28;20141;-26
2023/12/25 09:28:56;;;;;;;5.20;2.42;;;;;;;19.65;31.03;99480.38;4974491;28;20037;-26
2023/12/25 09:31:21;;;;;;;9.93;2.90;;;;;;;20.05;30.23;99469.88;4973525;28;20480;-27
2023/12/25 09:33:47;;;;;;;7.55;2.80;;;;;;;19.82;30.56;99463.13;4974758;28;20106;-27
2023/12/25 09:36:12;;;;;;;9.35;3.20;;;;;;;19.75;31.05;99455.31;4974727;28;20054;-31
2023/12/25 09:38:37;;;;;;;10.65;2.85;;;;;;;20.20;30.29;99453.63;4974634;28;20042;-27
2023/12/25 09:41:09;;;;;;;11.80;3.42;;;;;;;21.48;31.99;99450.31;4974308;28;20051;-27
2023/12/25 09:43:38;;;;;;;9.40;2.78;;;;;;;22.08;27.91;99443.00;4974632;28;20033;-26
2023/12/25 09:46:04;;;;;;;6.10;2.70;;;;;;;22.39;27.79;99444.31;4974366;28;20031;-26
2023/12/25 09:48:30;;;;;;;6.97;2.58;;;;;;;22.91;25.95;99438.25;4974708;28;20040;-27
2023/12/25 09:50:57;;;;;;;5.55;2.40;;;;;;;22.93;25.71;99431.44;4974654;28;20082;-26
2023/12/25 09:53:23;;;;;;;6.72;2.50;;;;;;;23.11;25.74;99440.69;4974008;28;20111;-39
2023/12/25 09:55:49;;;;;;;5.32;2.40;;;;;;;23.12;24.92;99427.94;4974354;28;20027;-26
2023/12/25 09:58:15;;;;;;;8.65;2.50;;;;;;;23.14;25.15;99409.44;4973835;28;20031;-25
2023/12/25 10:00:41;;;;;;;5.05;2.40;;;;;;;22.47;25.57;99413.06;4974253;28;20035;-27
2023/12/25 10:03:07;;;;;;;5.35;2.40;;;;;;;22.08;26.13;99411.28;4972405;28;20376;-26
2023/12/25 10:05:32;;;;;;;4.82;1.83;;;;;;;22.36;25.83;99401.53;4972729;28;20078;-27
2023/12/25 10:07:57;;;;;;;4.65;2.03;;;;;;;22.19;25.83;99401.16;4971510;28;20035;-27
2023/12/25 10:10:29;;;;;;;3.65;2.13;;;;;;;22.42;25.96;99396.84;4971441;28;20555;-27
2023/12/25 10:12:56;;;;;;;3.80;1.98;;;;;;;22.76;26.28;99402.09;4971146;28;20034;-26
2023/12/25 10:15:23;;;;;;;4.97;2.30;;;;;;;22.79;25.61;99400.69;4971089;28;20030;-27
2023/12/25 10:17:59;;;;;;;5.93;2.28;;;;;;;22.95;24.96;99388.53;4971328;28;20033;-26
2023/12/25 10:20:24;;;;;;;7.28;2.10;;;;;;;23.05;24.77;99387.59;4972739;28;20062;-27
2023/12/25 10:22:49;;;;;;;5.05;2.28;;;;;;;22.36;25.24;99381.75;4973655;28;20062;-26
2023/12/25 10:25:16;;;;;;;5.45;1.98;;;;;;;22.58;24.95;99379.28;4973576;28;20184;-25
2023/12/25 10:27:43;;;;;;;4.30;2.50;;;;;;;23.08;24.87;99372.66;4972874;28;20475;-26
2023/12/25 10:30:21;;;;;;;5.53;2.45;;;;;;;22.95;24.51;99374.16;4973468;28;20467;-26
2023/12/25 10:32:48;;;;;;;7.20;2.30;;;;;;;23.13;24.98;99365.22;4973370;28;20065;-26
2023/12/25 10:35:17;;;;;;;4.25;2.30;;;;;;;23.47;24.31;99358.69;4970842;28;20031;-26
2023/12/25 10:37:42;;;;;;;;;;;;;;;23.51;24.03;99362.41;4955250;28;20038;-26
2023/12/25 10:40:18;;;;;;;3.53;2.00;;;;;;;23.60;24.21;99359.81;4954656;28;20303;-27
2023/12/25 10:42:47;;;;;;;8.50;2.53;;;;;;;23.92;23.67;99353.53;4970630;28;20050;-28
2023/12/25 10:45:13;;;;;;;6.00;2.33;;;;;;;23.13;24.03;99351.66;4972813;28;20034;-27
2023/12/25 10:47:38;;;;;;;6.47;2.30;;;;;;;22.99;24.51;99357.00;4971955;28;20038;-27
2023/12/25 10:50:05;;;;;;;5.50;2.00;;;;;;;22.78;24.50;99350.28;4972594;28;20027;-27
2023/12/25 10:52:30;;;;;;;4.93;2.30;;;;;;;23.10;24.59;99354.16;4972834;28;20037;-27
2023/12/25 10:54:57;;;;;;;5.80;2.17;;;;;;;23.53;24.25;99356.69;4972250;28;20030;-27
2023/12/25 10:57:24;;;;;;;5.90;2.15;;;;;;;23.89;24.09;99348.69;4972882;28;20073;-27
2023/12/25 10:59:50;;;;;;;5.15;2.30;;;;;;;24.08;24.34;99345.88;4972744;28;20472;-27
2023/12/25 11:02:16;;;;;;;3.90;1.88;;;;;;;24.46;23.69;99351.06;4972978;28;20031;-26
2023/12/25 11:04:46;;;;;;;4.25;2.25;;;;;;;24.73;23.06;99352.16;4972671;28;20110;-26
2023/12/25 11:07:13;;;;;;;5.25;2.20;;;;;;;24.27;24.03;99339.53;4972885;28;20035;-26
2023/12/25 11:09:40;;;;;;;7.22;2.75;;;;;;;24.64;23.47;99352.09;4972498;28;20488;-26
2023/12/25 11:12:06;;;;;;;5.78;3.38;;;;;;;24.11;23.84;99337.13;4972616;28;20247;-26
2023/12/25 11:14:32;;;;;;;7.22;3.28;;;;;;;24.07;24.04;99338.06;4971451;28;20026;-26
2023/12/25 11:16:57;;;;;;;7.25;3.25;;;;;;;24.16;23.67;99334.31;4972402;28;20034;-26
2023/12/25 11:19:23;;;;;;;5.82;3.20;;;;;;;24.34;23.77;99337.22;4972569;28;20113;-27
2023/12/25 11:21:48;;;;;;;5.45;2.40;;;;;;;24.40;23.65;99342.22;4972406;28;20415;-27
2023/12/25 11:24:14;;;;;;;4.43;2.40;;;;;;;24.67;23.90;99345.22;4972369;28;20463;-27
2023/12/25 11:26:42;;;;;;;5.05;2.60;;;;;;;25.00;24.26;99340.38;4972419;28;20086;-27
2023/12/25 11:29:10;;;;;;;4.88;2.38;;;;;;;24.23;24.00;99331.19;4972237;28;20022;-27
2023/12/25 11:31:46;;;;;;;4.15;2.42;;;;;;;23.88;24.64;99335.44;4972145;28;20172;-26
2023/12/25 11:34:23;;;;;;;7.28;2.45;;;;;;;24.48;24.25;99337.97;4971520;28;20491;-26
2023/12/25 11:36:55;;;;;;;3.90;2.30;;;;;;;24.59;24.29;99338.59;4971575;28;20396;-27
2023/12/25 11:39:23;;;;;;;5.15;2.40;;;;;;;24.56;24.33;99333.75;4971019;28;20579;-27
2023/12/25 11:41:49;;;;;;;4.38;2.30;;;;;;;24.59;23.57;99335.88;4972143;28;20056;-27
2023/12/25 11:44:18;;;;;;;5.18;2.40;;;;;;;24.63;24.18;99341.50;4971982;28;20039;-27
2023/12/25 11:46:47;;;;;;;4.32;2.10;;;;;;;23.65;24.70;99342.63;4971795;28;20065;-26
2023/12/25 11:49:14;;;;;;;5.20;2.50;;;;;;;23.66;25.08;99347.75;4971720;28;20062;-25
2023/12/25 11:51:46;;;;;;;4.43;2.40;;;;;;;24.27;24.29;99339.53;4971775;28;20042;-26
2023/12/25 11:54:12;;;;;;;4.93;2.30;;;;;;;24.31;24.77;99340.53;4971670;28;20022;-26
2023/12/25 11:56:38;;;;;;;6.00;2.58;;;;;;;24.49;24.53;99342.31;4972264;28;20030;-27
2023/12/25 11:59:04;;;;;;;8.57;2.80;;;;;;;24.77;24.02;99345.78;4971676;28;20037;-28
2023/12/25 12:01:29;;;;;;;6.32;2.80;;;;;;;24.16;24.16;99347.09;4972027;28;20027;-27
2023/12/25 12:03:55;;;;;;;6.65;2.42;;;;;;;23.80;24.95;99348.63;4971742;28;20046;-27
2023/12/25 12:06:20;;;;;;;5.95;2.20;;;;;;;24.55;24.27;99349.28;4972149;28;20074;-26
2023/12/25 12:08:47;;;;;;;7.05;2.65;;;;;;;24.77;24.04;99355.88;4971626;28;20031;-27
2023/12/25 12:11:14;;;;;;;8.20;2.72;;;;;;;25.01;23.50;99347.41;4971812;28;20022;-26
2023/12/25 12:13:40;;;;;;;4.53;2.53;;;;;;;25.22;23.08;99342.25;4971946;28;20042;-27
2023/12/25 12:16:06;;;;;;;7.93;2.50;;;;;;;24.57;23.35;99344.34;4971332;28;20058;-27
2023/12/25 12:18:31;;;;;;;5.60;2.70;;;;;;;24.05;23.99;99334.84;4971788;28;20035;-26
2023/12/25 12:20:58;;;;;;;3.75;2.30;;;;;;;24.45;24.07;99330.44;4971721;28;20031;-26
2023/12/25 12:23:24;;;;;;;7.53;2.35;;;;;;;24.29;23.81;99334.59;4971713;28;20483;-27
2023/12/25 12:25:50;;;;;;;10.55;3.70;;;;;;;24.77;23.67;99336.84;4971986;28;20029;-26
2023/12/25 12:28:16;;;;;;;8.23;3.30;;;;;;;23.91;24.23;99338.38;4971728;28;20026;-27
2023/12/25 12:30:42;;;;;;;5.25;2.63;;;;;;;23.65;24.84;99345.34;4971889;28;20111;-28
2023/12/25 12:33:09;;;;;;;7.95;2.97;;;;;;;23.97;24.61;99347.19;4972066;28;20062;-27
2023/12/25 12:35:34;;;;;;;5.75;3.08;;;;;;;24.65;24.24;99350.97;4971691;28;20196;-27
2023/12/25 12:38:00;;;;;;;6.70;3.50;;;;;;;25.10;23.95;99355.66;4971692;28;20026;-28
2023/12/25 12:40:27;;;;;;;5.30;2.72;;;;;;;24.67;23.98;99350.66;4971245;28;20051;-27
2023/12/25 12:42:53;;;;;;;8.32;3.10;;;;;;;23.74;24.86;99355.22;4971275;28;20031;-27
2023/12/25 12:45:18;;;;;;;5.50;3.05;;;;;;;24.35;25.06;99352.41;4971463;28;20096;-26
2023/12/25 12:47:45;;;;;;;4.63;2.70;;;;;;;24.50;24.83;99348.53;4971691;28;20112;-26
2023/12/25 12:50:12;;;;;;;5.70;2.75;;;;;;;24.64;24.41;99356.72;4973932;28;20023;-27
2023/12/25 12:52:37;;;;;;;4.38;2.30;;;;;;;23.84;25.15;99356.13;4975049;28;20037;-27
2023/12/25 12:55:03;;;;;;;5.90;2.40;;;;;;;23.29;25.87;99349.50;4974944;28;20027;-27
2023/12/25 12:57:28;;;;;;;4.28;2.10;;;;;;;23.87;25.60;99345.47;4974898;28;20038;-27
2023/12/25 12:59:54;;;;;;;5.13;2.28;;;;;;;24.25;25.29;99336.31;4975005;28;20047;-26
2023/12/25 13:02:19;;;;;;;5.82;2.53;;;;;;;24.30;24.88;99342.44;4975084;28;20089;-27
2023/12/25 13:04:45;;;;;;;4.30;2.60;;;;;;;23.54;25.63;99339.28;4974880;28;20402;-27
2023/12/25 13:07:10;;;;;;;4.93;2.40;;;;;;;23.03;26.40;99344.47;4975304;28;20031;-28
2023/12/25 13:09:37;;;;;;;6.22;2.60;;;;;;;23.30;26.20;99323.94;4974988;28;20398;-26
2023/12/25 13:12:03;;;;;;;9.02;3.58;;;;;;;23.62;25.80;99352.16;4974986;28;20076;-26
2023/12/25 13:14:29;;;;;;;6.57;2.50;;;;;;;23.84;25.38;99361.56;4974760;28;20034;-27
2023/12/25 13:16:54;;;;;;;5.35;3.00;;;;;;;23.21;26.21;99350.97;4974678;28;20031;-27
2023/12/25 13:19:20;;;;;;;7.97;3.00;;;;;;;23.15;26.52;99364.91;4974565;28;20033;-27
2023/12/25 13:21:45;;;;;;;7.13;2.70;;;;;;;23.54;25.93;99367.25;4974517;28;20023;-27
2023/12/25 13:24:10;;;;;;;4.93;2.55;;;;;;;23.87;26.07;99352.84;4974566;28;20026;-26
2023/12/25 13:26:37;;;;;;;6.72;2.83;;;;;;;22.99;26.42;99348.84;4974498;28;20089;-27
2023/12/25 13:29:03;;;;;;;7.50;2.92;;;;;;;22.95;26.54;99360.59;4974448;28;20344;-27
2023/12/25 13:31:29;;;;;;;5.88;3.22;;;;;;;23.27;25.95;99359.84;4974796;28;20023;-27
2023/12/25 13:33:54;;;;;;;5.95;2.80;;;;;;;23.30;25.96;99366.56;4974739;28;20122;-27
2023/12/25 13:36:20;;;;;;;8.38;2.80;;;;;;;22.70;26.50;99359.88;4974660;28;20475;-27
2023/12/25 13:38:45;;;;;;;5.60;2.70;;;;;;;22.80;26.41;99369.75;4974552;28;20060;-27
2023/12/25 13:41:11;;;;;;;5.28;2.70;;;;;;;23.42;26.20;99375.88;4973633;28;20043;-26
2023/12/25 13:43:36;;;;;;;5.80;2.85;;;;;;;23.72;25.50;99375.63;4974217;28;20030;-26
2023/12/25 13:46:02;;;;;;;4.75;2.80;;;;;;;23.09;25.96;99377.75;4974113;28;20030;-26
2023/12/25 13:48:28;;;;;;;7.47;2.85;;;;;;;22.29;27.33;99375.88;4974136;28;20031;-26
2023/12/25 13:50:54;;;;;;;5.40;2.67;;;;;;;22.97;26.63;99375.47;4973962;28;20102;-27
2023/12/25 13:53:21;;;;;;;7.15;2.55;;;;;;;23.43;26.15;99376.66;4974151;28;20051;-28
2023/12/25 13:55:47;;;;;;;7.28;2.47;;;;;;;23.31;26.05;99387.22;4973895;28;20049;-26
2023/12/25 13:58:13;;;;;;;6.43;2.80;;;;;;;22.20;27.21;99383.78;4973589;28;20348;-26
2023/12/25 14:00:39;;;;;;;5.43;2.80;;;;;;;22.33;27.26;99379.59;4973413;28;20023;-27
2023/12/25 14:03:04;;;;;;;8.45;3.17;;;;;;;22.83;26.75;99378.13;4973620;28;20030;-27
2023/12/25 14:05:30;;;;;;;5.93;2.85;;;;;;;23.08;26.11;99380.78;4973703;28;20022;-27
2023/12/25 14:07:55;;;;;;;11.45;3.22;;;;;;;22.55;26.27;99377.16;4973860;28;20018;-26
2023/12/25 14:10:21;;;;;;;6.05;3.30;;;;;;;21.88;27.30;99379.03;4973991;28;20498;-27
2023/12/25 14:12:46;;;;;;;9.48;4.65;;;;;;;22.29;26.88;99378.59;4973723;28;20023;-27
2023/12/25 14:15:12;;;;;;;15.68;6.25;;;;;;;22.53;26.52;99379.34;4974013;28;20049;-26
2023/12/25 14:17:37;;;;;;;8.73;4.43;;;;;;;22.21;26.85;99382.72;4973587;28;20019;-27
2023/12/25 14:20:04;;;;;;;6.25;3.17;;;;;;;21.52;27.63;99379.38;4973544;28;20110;-26
2023/12/25 14:22:29;;;;;;;8.65;3.80;;;;;;;21.94;27.29;99389.50;4973327;28;20026;-26